Etihad Airways Virtual Airport Information Service

Phuket International Airport

ICAO: VTSP Country: Thailand
Latitude: 8.1132 Longitude: 98.3169
Latest Arrival : UAE396 (OMDB-VTSP) Latest Departure : UAE379 (1) (VTSP-OMDB)


WX CaptureLIVE
Data provided by noaa.gov | Recorded at 21:30:08

METAR : VTSP 192100Z 25003KT 190V300 9999 FEW020 BKN100 27/23 Q1007 NOSIG

TAF : VTSP 191700Z 1918/2024 26010KT 9999 SCT020 BKN100 TEMPO 2004/2010 28015G25KT 5000 RA FEW018 SCT020 BKN100 TEMPO 2020/2024 28015G25KT 5000 RA FEW018 SCT020 BKN100


Runway Data for VTSP
Data provided by openaviationdata.com

Runway ID Mag Var Hdg Length Elevation Surface ILS Freq ILS Id ILS Slope

Phuket International Airport, Thailand
Use only for reference purposes